Time;durP1;ratioP1;P1;durP2;ratioP2;P2;SDS_P1;SDS_P2;PMS_P1;PMS_P2;Temp;Humidity;BMP_temperature;BMP_pressure;BME280_temperature;BME280_humidity;BME280_pressure;Samples;Min_cycle;Max_cycle;Signal;HPM_P1;HPM_P2
2022/06/26 00:00:14;;;;;;;2.13;1.20;;;24.50;89.50;;;;;;5095411;28;20031;-50
2022/06/26 00:02:40;;;;;;;1.65;1.08;;;24.60;89.60;;;;;;5095624;28;20085;-47
2022/06/26 00:05:07;;;;;;;1.65;1.20;;;24.70;76.30;;;;;;5095421;28;20074;-48
2022/06/26 00:07:33;;;;;;;3.28;1.55;;;24.20;89.20;;;;;;5095459;28;20028;-48
2022/06/26 00:09:59;;;;;;;1.75;1.10;;;;;;;;;;5095144;28;20048;-48
2022/06/26 00:12:25;;;;;;;3.83;1.20;;;25.30;61.60;;;;;;5095234;28;20086;-48
2022/06/26 00:14:51;;;;;;;1.50;1.13;;;;;;;;;;5095172;28;20032;-47
2022/06/26 00:17:17;;;;;;;1.75;1.27;;;;;;;;;;5095343;28;20028;-48
2022/06/26 00:19:43;;;;;;;1.23;1.10;;;24.50;89.40;;;;;;5095126;28;20031;-47
2022/06/26 00:22:09;;;;;;;2.00;1.10;;;24.40;89.20;;;;;;5094990;28;20039;-47
2022/06/26 00:24:35;;;;;;;2.15;1.23;;;24.70;89.60;;;;;;5095054;28;20028;-47
2022/06/26 00:27:06;;;;;;;2.97;1.52;;;24.50;89.70;;;;;;5094945;28;20032;-47
2022/06/26 00:29:35;;;;;;;2.45;1.20;;;24.60;81.40;;;;;;5095121;28;20035;-47
2022/06/26 00:32:02;;;;;;;1.58;1.02;;;24.60;89.50;;;;;;5095013;28;20035;-47
2022/06/26 00:34:28;;;;;;;2.08;1.45;;;24.60;89.60;;;;;;5095038;28;20024;-47
2022/06/26 00:36:54;;;;;;;2.28;1.13;;;24.70;87.10;;;;;;5094805;28;20031;-48
2022/06/26 00:39:19;;;;;;;4.50;1.50;;;24.30;85.90;;;;;;5094945;28;20077;-49
2022/06/26 00:41:45;;;;;;;2.70;1.40;;;24.50;59.10;;;;;;5094978;28;20098;-48
2022/06/26 00:44:21;;;;;;;2.47;1.40;;;24.50;89.60;;;;;;5094656;28;20103;-47
2022/06/26 00:46:46;;;;;;;2.00;1.52;;;24.50;89.60;;;;;;5094671;28;20032;-48
2022/06/26 00:49:12;;;;;;;1.55;1.20;;;24.70;89.80;;;;;;5094554;28;20028;-48
2022/06/26 00:51:43;;;;;;;3.05;1.63;;;24.50;89.50;;;;;;5094662;28;20020;-49
2022/06/26 00:54:09;;;;;;;1.52;1.27;;;24.50;59.10;;;;;;5094534;28;20012;-47
2022/06/26 00:56:36;;;;;;;2.03;1.52;;;25.10;61.60;;;;;;5094474;28;20024;-48
2022/06/26 00:59:02;;;;;;;2.63;1.50;;;24.40;89.40;;;;;;5094477;28;20113;-48
2022/06/26 01:01:28;;;;;;;1.48;1.38;;;24.40;89.20;;;;;;5094261;28;20054;-48
2022/06/26 01:03:53;;;;;;;2.10;1.90;;;24.40;88.70;;;;;;5094203;28;20020;-48
2022/06/26 01:06:19;;;;;;;2.08;1.77;;;24.40;66.60;;;;;;5094205;28;20077;-48
2022/06/26 01:08:45;;;;;;;2.45;1.77;;;;;;;;;;5094057;28;20475;-47
2022/06/26 01:11:17;;;;;;;2.15;1.65;;;24.40;89.30;;;;;;5094078;28;20036;-47
2022/06/26 01:13:50;;;;;;;1.77;1.60;;;24.50;89.30;;;;;;5094391;28;20008;-48
2022/06/26 01:16:17;;;;;;;4.22;2.03;;;24.30;75.00;;;;;;5094047;28;20392;-47
2022/06/26 01:18:45;;;;;;;2.20;1.77;;;24.40;59.10;;;;;;5093988;28;20032;-48
2022/06/26 01:21:11;;;;;;;2.10;1.90;;;24.60;89.50;;;;;;5093872;28;20059;-47
2022/06/26 01:23:37;;;;;;;1.70;1.45;;;24.50;62.60;;;;;;5094106;28;20436;-47
2022/06/26 01:26:04;;;;;;;1.73;1.63;;;25.80;60.00;;;;;;5094186;28;20032;-48
2022/06/26 01:28:30;;;;;;;2.50;1.80;;;24.30;75.40;;;;;;5093784;28;20031;-47
2022/06/26 01:30:55;;;;;;;1.92;1.80;;;24.80;60.00;;;;;;5093699;28;20028;-49
2022/06/26 01:33:21;;;;;;;1.92;1.63;;;;;;;;;;5093929;28;20031;-48
2022/06/26 01:35:47;;;;;;;2.95;2.30;;;;;;;;;;5093607;28;20132;-47
2022/06/26 01:38:15;;;;;;;2.90;1.85;;;24.40;59.80;;;;;;5093571;28;20028;-47
2022/06/26 01:40:42;;;;;;;3.03;1.77;;;24.80;62.20;;;;;;5093548;28;20543;-48
2022/06/26 01:43:08;;;;;;;3.10;1.70;;;24.50;89.20;;;;;;5093533;28;20478;-47
2022/06/26 01:45:41;;;;;;;3.95;1.60;;;24.50;89.20;;;;;;5093577;28;20034;-47
2022/06/26 01:48:06;;;;;;;2.30;1.80;;;24.40;89.10;;;;;;5093478;28;20070;-48
2022/06/26 01:50:32;;;;;;;2.08;1.50;;;;;;;;;;5093269;28;20039;-48
2022/06/26 01:52:58;;;;;;;4.40;1.40;;;24.30;89.00;;;;;;5093367;28;20028;-48
2022/06/26 01:55:23;;;;;;;2.10;1.73;;;24.20;88.60;;;;;;5093308;28;20414;-48
2022/06/26 01:57:49;;;;;;;2.95;2.03;;;;;;;;;;5093213;28;20020;-48
2022/06/26 02:00:15;;;;;;;3.90;1.60;;;24.20;88.90;;;;;;5093207;28;20111;-48
2022/06/26 02:02:41;;;;;;;2.58;1.80;;;24.30;89.10;;;;;;5093114;28;20070;-47
2022/06/26 02:05:07;;;;;;;2.50;1.80;;;24.50;89.40;;;;;;5093152;28;20070;-50
2022/06/26 02:07:32;;;;;;;2.05;1.65;;;24.40;89.20;;;;;;5093114;28;20050;-50
2022/06/26 02:15:28;;;;;;;2.92;1.75;;;24.50;89.40;;;;;;5092542;28;20100;-49
2022/06/26 02:17:55;;;;;;;1.85;1.60;;;24.30;89.00;;;;;;5093121;28;20470;-49
2022/06/26 02:20:21;;;;;;;4.78;1.67;;;24.50;89.40;;;;;;5092923;28;20035;-50
2022/06/26 02:22:46;;;;;;;2.03;1.48;;;24.30;89.10;;;;;;5092864;28;20036;-48
2022/06/26 02:25:12;;;;;;;3.15;1.73;;;24.40;89.20;;;;;;5092825;28;20032;-49
2022/06/26 02:27:37;;;;;;;2.70;1.67;;;24.50;89.30;;;;;;5092630;28;20067;-49
2022/06/26 02:30:04;;;;;;;2.20;1.90;;;;;;;;;;5092608;28;20040;-48
2022/06/26 02:32:30;;;;;;;2.65;1.75;;;;;;;;;;5092649;28;20063;-49
2022/06/26 02:34:56;;;;;;;1.73;1.48;;;;;;;;;;5092527;28;20055;-49
2022/06/26 02:37:21;;;;;;;2.25;1.50;;;24.30;69.20;;;;;;5092522;28;20526;-48
2022/06/26 02:39:47;;;;;;;2.30;2.00;;;24.40;89.10;;;;;;5092507;28;20107;-49
2022/06/26 02:42:13;;;;;;;1.42;1.33;;;24.20;89.00;;;;;;5092625;28;20032;-49
2022/06/26 02:44:38;;;;;;;1.85;1.45;;;24.50;89.10;;;;;;5092435;28;20020;-49
2022/06/26 02:47:04;;;;;;;1.45;1.35;;;24.40;89.10;;;;;;5092515;28;20446;-49
2022/06/26 02:49:29;;;;;;;3.40;1.50;;;24.40;88.70;;;;;;5092307;28;20027;-49
2022/06/26 02:51:56;;;;;;;1.77;1.50;;;;;;;;;;5092370;28;20028;-49
2022/06/26 02:54:21;;;;;;;3.55;1.48;;;24.20;89.00;;;;;;5092322;28;20028;-49
2022/06/26 02:56:47;;;;;;;1.83;1.45;;;24.20;89.00;;;;;;5092628;28;20031;-49
2022/06/26 02:59:12;;;;;;;1.83;1.67;;;24.10;88.90;;;;;;5092418;28;20103;-50
2022/06/26 03:01:38;;;;;;;2.92;1.52;;;24.20;89.20;;;;;;5092498;28;20028;-48
2022/06/26 03:04:05;;;;;;;2.40;1.42;;;24.30;86.90;;;;;;5092257;28;20020;-49
2022/06/26 03:06:30;;;;;;;4.00;1.75;;;24.40;89.10;;;;;;5092249;28;20471;-49
2022/06/26 03:08:57;;;;;;;1.90;1.60;;;24.40;89.00;;;;;;5092003;28;20025;-48
2022/06/26 03:11:22;;;;;;;1.60;1.50;;;24.20;88.90;;;;;;5092258;28;20055;-49
2022/06/26 03:13:48;;;;;;;2.35;1.65;;;24.50;89.10;;;;;;5092457;28;20356;-50
2022/06/26 03:16:13;;;;;;;2.05;1.77;;;24.30;84.00;;;;;;5092220;28;20039;-50
2022/06/26 03:18:39;;;;;;;2.15;1.77;;;;;;;;;;5092149;28;20023;-50
2022/06/26 03:21:05;;;;;;;2.20;1.55;;;;;;;;;;5092012;28;20024;-49
2022/06/26 03:26:16;;;;;;;2.50;1.80;;;24.50;80.30;;;;;;5092443;28;20039;-48
2022/06/26 03:28:41;;;;;;;2.72;1.52;;;24.30;71.00;;;;;;5096389;28;20012;-49
2022/06/26 03:31:07;;;;;;;2.00;1.60;;;;;;;;;;5095961;28;20044;-49
2022/06/26 03:33:33;;;;;;;1.92;1.52;;;;;;;;;;5096004;28;20028;-49
2022/06/26 03:35:59;;;;;;;2.47;1.63;;;24.40;89.10;;;;;;5095995;28;20032;-49
2022/06/26 03:38:24;;;;;;;2.85;1.63;;;24.20;88.80;;;;;;5095989;28;20447;-49
2022/06/26 03:40:50;;;;;;;2.45;1.52;;;24.40;89.10;;;;;;5095882;28;20035;-49
2022/06/26 03:43:16;;;;;;;1.70;1.42;;;24.20;88.60;;;;;;5095818;28;20020;-49
2022/06/26 03:45:41;;;;;;;2.15;1.58;;;24.10;67.90;;;;;;5095819;28;20048;-49
2022/06/26 03:48:07;;;;;;;1.73;1.45;;;24.10;88.80;;;;;;5095718;28;20386;-49
2022/06/26 03:50:33;;;;;;;3.58;2.03;;;;;;;;;;5095623;28;20089;-49
2022/06/26 03:53:00;;;;;;;1.88;1.45;;;;;;;;;;5095650;28;20032;-50
2022/06/26 03:55:26;;;;;;;2.03;1.55;;;;;;;;;;5095645;28;20032;-49
2022/06/26 03:57:51;;;;;;;2.78;1.80;;;;;;;;;;5095518;28;20039;-49
2022/06/26 04:00:17;;;;;;;2.45;1.73;;;24.30;89.10;;;;;;5095631;28;20028;-50
2022/06/26 04:02:43;;;;;;;2.67;1.70;;;24.40;89.10;;;;;;5095424;28;20486;-52
2022/06/26 04:05:09;;;;;;;1.95;1.58;;;24.40;89.00;;;;;;5095385;28;20032;-49
2022/06/26 04:07:34;;;;;;;2.78;1.50;;;23.80;88.70;;;;;;5095387;28;20031;-52
2022/06/26 04:10:00;;;;;;;2.97;2.00;;;23.80;88.70;;;;;;5095043;28;20071;-50
2022/06/26 04:12:26;;;;;;;2.42;1.58;;;24.30;89.00;;;;;;5095414;28;20032;-48
2022/06/26 04:14:52;;;;;;;2.58;1.63;;;24.40;86.70;;;;;;5095287;28;20024;-50
2022/06/26 04:17:17;;;;;;;2.05;1.55;;;24.30;68.40;;;;;;5095423;28;20027;-49
2022/06/26 04:19:43;;;;;;;1.75;1.40;;;;;;;;;;5095398;28;20394;-49
2022/06/26 04:22:09;;;;;;;2.05;1.55;;;;;;;;;;5095092;28;20028;-50
2022/06/26 04:24:35;;;;;;;2.40;1.60;;;24.20;88.80;;;;;;5095049;28;20394;-50
2022/06/26 04:27:01;;;;;;;2.45;1.65;;;24.20;88.80;;;;;;5095011;28;20030;-49
2022/06/26 04:29:27;;;;;;;2.00;1.50;;;23.80;88.50;;;;;;5094949;28;20109;-51
2022/06/26 04:31:52;;;;;;;1.63;1.27;;;24.30;88.90;;;;;;5094976;28;20020;-50
2022/06/26 04:34:18;;;;;;;2.92;1.77;;;23.90;88.70;;;;;;5094808;28;20028;-49
2022/06/26 04:36:44;;;;;;;2.67;1.83;;;24.40;62.90;;;;;;5094842;28;20444;-50
2022/06/26 04:39:10;;;;;;;2.70;1.55;;;24.00;89.00;;;;;;5094318;28;20052;-48
2022/06/26 04:41:36;;;;;;;1.70;1.40;;;24.30;89.00;;;;;;5094693;28;20067;-50
2022/06/26 04:44:03;;;;;;;1.55;1.40;;;23.90;73.20;;;;;;5094698;28;20051;-48
2022/06/26 04:46:29;;;;;;;1.95;1.60;;;;;;;;;;5094587;28;20502;-48
2022/06/26 04:48:56;;;;;;;3.80;1.58;;;24.00;58.50;;;;;;5094682;28;20032;-48
2022/06/26 04:51:22;;;;;;;1.95;1.50;;;;;;;;;;5094496;28;20032;-49
2022/06/26 04:53:48;;;;;;;3.17;1.42;;;;;;;;;;5094522;28;20028;-49
2022/06/26 04:56:14;;;;;;;2.83;1.40;;;;;;;;;;5094435;28;20016;-49
2022/06/26 04:58:39;;;;;;;2.72;1.52;;;24.00;62.10;;;;;;5094382;28;20443;-49
2022/06/26 05:01:05;;;;;;;1.33;1.23;;;;;;;;;;5094338;28;20020;-49
2022/06/26 05:03:31;;;;;;;1.85;1.52;;;24.30;88.70;;;;;;5094328;28;20051;-50
2022/06/26 05:05:57;;;;;;;1.77;1.20;;;24.10;88.70;;;;;;5094340;28;20049;-50
2022/06/26 05:08:22;;;;;;;2.15;1.48;;;24.10;88.90;;;;;;5094296;28;20024;-49
2022/06/26 05:10:48;;;;;;;2.42;1.42;;;24.00;88.60;;;;;;5094133;28;20036;-49
2022/06/26 05:13:13;;;;;;;1.73;1.52;;;24.10;68.90;;;;;;5094093;28;20059;-50
2022/06/26 05:15:39;;;;;;;3.90;1.55;;;24.00;58.60;;;;;;5094321;28;20024;-48
2022/06/26 05:18:05;;;;;;;1.35;1.08;;;;;;;;;;5094008;28;20356;-49
2022/06/26 05:20:31;;;;;;;1.77;1.30;;;;;;;;;;5094161;28;20027;-49
2022/06/26 05:22:57;;;;;;;2.55;1.25;;;;;;;;;;5093896;28;20032;-48
2022/06/26 05:25:23;;;;;;;2.80;1.15;;;23.90;88.60;;;;;;5093914;28;20444;-49
2022/06/26 05:27:49;;;;;;;2.10;1.63;;;23.80;88.60;;;;;;5093927;28;20032;-49
2022/06/26 05:30:15;;;;;;;2.67;1.27;;;24.20;88.80;;;;;;5075518;28;20085;-52
2022/06/26 05:32:41;;;;;;;3.53;1.20;;;24.20;88.60;;;;;;5093778;28;20039;-50
2022/06/26 05:35:07;;;;;;;2.92;1.67;;;24.30;88.80;;;;;;5093718;28;20060;-52
2022/06/26 05:37:32;;;;;;;2.10;1.40;;;24.20;88.50;;;;;;5093672;28;20036;-50
2022/06/26 05:39:58;;;;;;;2.67;1.50;;;24.30;88.70;;;;;;5093633;28;20032;-50
2022/06/26 05:42:24;;;;;;;1.50;1.40;;;24.30;78.90;;;;;;5093551;28;20019;-49
2022/06/26 05:44:50;;;;;;;2.63;1.00;;;;;;;;;;5093537;28;20029;-51
2022/06/26 05:47:16;;;;;;;3.00;1.25;;;;;;;;;;5093363;28;20471;-51
2022/06/26 05:49:41;;;;;;;1.92;1.33;;;;;;;;;;5092558;28;20112;-49
2022/06/26 05:52:08;;;;;;;1.58;1.25;;;;;;;;;;5093380;28;20020;-48
2022/06/26 05:54:34;;;;;;;1.85;1.30;;;;;;;;;;5093503;28;20446;-50
2022/06/26 05:57:00;;;;;;;2.97;1.10;;;;;;;;;;5093275;28;20081;-49
2022/06/26 05:59:26;;;;;;;2.17;1.50;;;;;;;;;;5093169;28;20095;-49
2022/06/26 06:01:51;;;;;;;1.27;1.15;;;24.20;88.50;;;;;;5093112;28;20032;-48
2022/06/26 06:04:17;;;;;;;1.73;1.40;;;24.30;88.40;;;;;;5093146;28;20436;-51
2022/06/26 06:06:42;;;;;;;2.47;1.30;;;24.00;88.20;;;;;;5093040;28;20028;-48
2022/06/26 06:09:08;;;;;;;1.20;1.10;;;23.90;88.30;;;;;;5092692;28;20098;-48
2022/06/26 06:11:33;;;;;;;1.67;1.30;;;24.20;81.50;;;;;;5092984;28;20024;-48
2022/06/26 06:13:59;;;;;;;2.25;1.08;;;23.80;88.00;;;;;;5092968;28;20169;-49
2022/06/26 06:16:25;;;;;;;1.02;0.93;;;23.80;88.00;;;;;;5093001;28;20028;-49
2022/06/26 06:18:50;;;;;;;1.25;0.98;;;24.40;88.70;;;;;;5092820;28;20032;-49
2022/06/26 06:21:16;;;;;;;1.88;1.30;;;24.40;88.70;;;;;;5092989;28;20024;-49
2022/06/26 06:23:42;;;;;;;1.48;1.20;;;24.30;88.50;;;;;;5092913;28;20386;-50
2022/06/26 06:26:09;;;;;;;1.40;0.90;;;24.40;88.60;;;;;;5092764;28;20035;-48
2022/06/26 06:28:35;;;;;;;1.35;0.80;;;24.10;88.50;;;;;;5092631;28;20540;-50
2022/06/26 06:31:00;;;;;;;2.03;1.20;;;24.20;88.60;;;;;;5092642;28;20032;-49
2022/06/26 06:33:26;;;;;;;1.85;1.00;;;24.00;88.50;;;;;;5092605;28;20020;-50
2022/06/26 06:35:55;;;;;;;1.25;1.02;;;;;;;;;;5092529;28;20136;-50
2022/06/26 06:38:21;;;;;;;1.33;1.23;;;24.30;89.30;;;;;;5092542;28;20023;-50
2022/06/26 06:40:47;;;;;;;1.88;1.15;;;24.40;89.30;;;;;;5092524;28;20108;-48
2022/06/26 06:43:13;;;;;;;1.65;1.10;;;23.90;89.30;;;;;;5092492;28;20028;-49
2022/06/26 06:45:39;;;;;;;4.00;1.33;;;24.10;89.30;;;;;;5092359;28;20031;-50
2022/06/26 06:48:05;;;;;;;1.55;1.10;;;24.20;89.30;;;;;;5092681;28;20024;-50
2022/06/26 06:50:31;;;;;;;1.42;1.25;;;24.20;89.30;;;;;;5092375;28;20071;-50
2022/06/26 06:52:56;;;;;;;2.42;1.17;;;24.00;88.80;;;;;;5092585;28;20027;-48
2022/06/26 06:55:22;;;;;;;2.25;1.02;;;24.20;88.80;;;;;;5092325;28;20051;-48
2022/06/26 06:57:48;;;;;;;2.15;1.05;;;24.50;89.20;;;;;;5092376;28;20032;-48
2022/06/26 07:00:14;;;;;;;2.00;0.93;;;24.40;89.50;;;;;;5092183;28;20113;-48
2022/06/26 07:02:40;;;;;;;8.15;1.02;;;24.40;89.60;;;;;;5092180;28;20106;-49
2022/06/26 07:05:07;;;;;;;5.22;1.00;;;24.40;89.50;;;;;;5092286;28;20032;-48
2022/06/26 07:07:33;;;;;;;4.35;0.80;;;23.80;79.00;;;;;;5092458;28;20073;-49
2022/06/26 07:09:59;;;;;;;4.25;1.00;;;24.40;90.00;;;;;;5091973;28;20503;-49
2022/06/26 07:12:25;;;;;;;2.17;1.00;;;24.20;90.10;;;;;;5092323;28;20020;-49
2022/06/26 07:14:50;;;;;;;2.63;1.00;;;24.40;84.00;;;;;;5092219;28;20070;-48
2022/06/26 07:17:16;;;;;;;1.98;0.88;;;24.40;69.10;;;;;;5092064;28;20382;-49
2022/06/26 07:19:43;;;;;;;5.82;0.90;;;24.50;85.50;;;;;;5091885;28;20024;-49
2022/06/26 07:22:09;;;;;;;2.95;0.90;;;24.20;59.20;;;;;;5091901;28;20027;-48
2022/06/26 07:24:34;;;;;;;1.80;1.10;;;24.00;89.70;;;;;;5091795;28;20027;-48
2022/06/26 07:27:00;;;;;;;2.10;1.00;;;24.30;89.70;;;;;;5092027;28;20375;-50
2022/06/26 07:29:26;;;;;;;4.03;1.05;;;24.00;70.80;;;;;;5091713;28;20054;-49
2022/06/26 07:31:52;;;;;;;1.73;1.10;;;23.70;87.30;;;;;;5092093;28;20051;-48
2022/06/26 07:34:18;;;;;;;2.10;0.90;;;24.30;89.60;;;;;;5091876;28;20052;-47
2022/06/26 07:36:46;;;;;;;1.10;1.00;;;24.20;87.90;;;;;;5091737;28;20067;-48
2022/06/26 07:39:12;;;;;;;2.80;0.80;;;24.20;77.90;;;;;;5091682;28;20404;-47
2022/06/26 07:41:39;;;;;;;2.60;1.08;;;24.00;89.30;;;;;;5092043;28;20429;-48
2022/06/26 07:44:06;;;;;;;2.55;1.02;;;24.00;89.30;;;;;;5092035;28;20061;-49
2022/06/26 07:46:32;;;;;;;4.00;1.40;;;24.30;71.10;;;;;;5092073;28;20028;-49
2022/06/26 07:48:58;;;;;;;1.33;1.20;;;24.00;88.60;;;;;;5091900;28;20032;-48
2022/06/26 07:51:23;;;;;;;2.90;1.15;;;24.30;66.00;;;;;;5092128;28;20081;-48
2022/06/26 07:53:50;;;;;;;5.40;1.50;;;;;;;;;;5092036;28;20017;-49
2022/06/26 07:56:16;;;;;;;3.63;1.20;;;;;;;;;;5092036;28;20441;-49
2022/06/26 07:58:42;;;;;;;1.73;1.10;;;;;;;;;;5091726;28;20027;-49
2022/06/26 08:01:08;;;;;;;2.85;1.20;;;;;;;;;;5091823;28;20039;-47
2022/06/26 08:03:34;;;;;;;4.72;1.48;;;;;;;;;;5091692;28;20390;-48
2022/06/26 08:05:59;;;;;;;1.30;1.08;;;24.50;62.30;;;;;;5091640;28;20058;-49
2022/06/26 08:08:26;;;;;;;7.32;1.83;;;;;;;;;;5091514;28;20028;-48
2022/06/26 08:10:52;;;;;;;1.55;1.23;;;24.40;64.20;;;;;;5091836;28;20032;-49
2022/06/26 08:13:18;;;;;;;2.97;1.30;;;;;;;;;;5093711;28;20034;-48
2022/06/26 08:15:43;;;;;;;2.58;1.45;;;24.80;61.00;;;;;;5095189;28;20470;-49
2022/06/26 08:18:09;;;;;;;2.85;1.38;;;24.40;88.80;;;;;;5095118;28;20112;-49
2022/06/26 08:20:35;;;;;;;1.35;1.00;;;24.20;88.40;;;;;;5095150;28;20030;-49
2022/06/26 08:23:00;;;;;;;3.85;1.60;;;24.40;88.60;;;;;;5095318;28;20106;-48
2022/06/26 08:25:26;;;;;;;2.30;1.48;;;24.40;88.70;;;;;;5095019;28;20029;-50
2022/06/26 08:27:52;;;;;;;2.28;1.13;;;24.30;88.20;;;;;;5095266;28;20016;-49
2022/06/26 08:30:18;;;;;;;1.65;1.10;;;;;;;;;;5094962;28;20501;-49
2022/06/26 08:32:43;;;;;;;4.53;1.48;;;24.00;58.40;;;;;;5094916;28;20039;-49
2022/06/26 08:35:11;;;;;;;3.35;1.50;;;24.20;57.00;;;;;;5095083;28;20067;-48
2022/06/26 08:37:37;;;;;;;1.30;1.20;;;;;;;;;;5094817;28;20028;-49
2022/06/26 08:40:04;;;;;;;2.60;1.10;;;23.90;87.50;;;;;;5094713;28;20020;-48
2022/06/26 08:42:31;;;;;;;1.38;1.27;;;24.30;87.90;;;;;;5094918;28;20081;-49
2022/06/26 08:44:58;;;;;;;3.08;1.20;;;24.50;88.10;;;;;;5094699;28;20066;-49
2022/06/26 08:47:26;;;;;;;1.75;1.02;;;24.40;67.80;;;;;;5094545;28;20479;-49
2022/06/26 08:49:52;;;;;;;1.95;1.10;;;24.20;87.70;;;;;;5094562;28;20036;-50
2022/06/26 08:52:21;;;;;;;1.65;1.15;;;24.30;70.00;;;;;;5094478;28;20032;-48
2022/06/26 08:54:48;;;;;;;0.80;0.80;;;24.40;82.10;;;;;;5094724;28;20028;-48
2022/06/26 08:57:18;;;;;;;1.20;1.00;;;24.10;87.30;;;;;;5094625;28;20456;-48
2022/06/26 08:59:44;;;;;;;1.30;0.90;;;24.30;56.50;;;;;;5094392;28;20093;-49
2022/06/26 09:02:09;;;;;;;1.40;1.05;;;;;;;;;;5094208;28;20036;-50
2022/06/26 09:04:39;;;;;;;3.13;1.73;;;24.30;87.70;;;;;;5094258;28;20035;-46
2022/06/26 09:07:07;;;;;;;2.78;1.02;;;24.20;87.50;;;;;;5094256;28;20364;-48
2022/06/26 09:09:38;;;;;;;2.95;1.23;;;24.60;87.60;;;;;;5094004;28;20050;-46
2022/06/26 09:12:04;;;;;;;3.70;1.00;;;24.70;87.90;;;;;;5094219;28;20031;-47
2022/06/26 09:14:30;;;;;;;4.03;1.20;;;24.50;87.60;;;;;;5094133;28;20035;-46
2022/06/26 09:16:57;;;;;;;5.30;1.23;;;24.40;87.30;;;;;;5094098;28;20035;-46
2022/06/26 09:19:33;;;;;;;1.63;1.08;;;24.20;87.00;;;;;;5094092;28;20020;-45
2022/06/26 09:22:10;;;;;;;1.70;1.25;;;24.50;87.40;;;;;;5094011;28;20032;-49
2022/06/26 09:24:37;;;;;;;1.27;1.08;;;24.40;87.10;;;;;;5092803;28;20112;-49
2022/06/26 09:27:15;;;;;;;3.17;1.30;;;24.30;87.10;;;;;;5093809;28;20031;-49
2022/06/26 09:29:47;;;;;;;4.60;1.38;;;24.70;87.40;;;;;;5093917;28;20077;-49
2022/06/26 09:32:14;;;;;;;1.98;1.05;;;24.70;87.10;;;;;;5093719;28;20031;-50
2022/06/26 09:34:51;;;;;;;3.00;1.00;;;24.50;86.80;;;;;;5093994;28;20028;-48
2022/06/26 09:37:19;;;;;;;1.92;1.23;;;24.60;85.00;;;;;;5093781;28;20028;-47
2022/06/26 09:39:46;;;;;;;2.60;1.02;;;24.60;86.90;;;;;;5093635;28;20020;-48
2022/06/26 09:42:24;;;;;;;1.67;1.02;;;24.30;59.10;;;;;;5093530;28;20379;-49
2022/06/26 09:44:52;;;;;;;2.25;1.00;;;24.60;56.00;;;;;;5093553;28;20024;-49
2022/06/26 09:47:35;;;;;;;1.88;1.23;;;24.90;87.20;;;;;;5093494;28;20073;-49
2022/06/26 09:50:04;;;;;;;3.30;0.98;;;24.30;86.70;;;;;;5093408;28;20048;-49
2022/06/26 09:52:31;;;;;;;2.80;1.30;;;24.60;83.40;;;;;;5093653;28;20387;-50
2022/06/26 09:54:59;;;;;;;1.83;0.88;;;24.60;86.90;;;;;;5093431;28;20020;-45
2022/06/26 09:57:26;;;;;;;1.80;0.85;;;24.70;87.10;;;;;;5093346;28;20032;-45
2022/06/26 09:59:52;;;;;;;2.40;1.42;;;;;;;;;;5093495;28;20415;-45
2022/06/26 10:08:00;;;;;;;2.03;1.23;;;24.70;85.70;;;;;;5093207;28;20521;-45
2022/06/26 10:10:26;;;;;;;;;;;24.80;55.80;;;;;;5093272;28;20051;-46
2022/06/26 10:12:58;;;;;;;1.55;0.93;;;24.40;71.70;;;;;;5093116;28;19904;-47
2022/06/26 10:15:28;;;;;;;2.20;0.98;;;25.00;86.30;;;;;;5092985;28;20475;-46
2022/06/26 10:18:13;;;;;;;3.45;1.13;;;24.90;86.10;;;;;;5093005;28;20101;-46
2022/06/26 10:20:40;;;;;;;2.45;1.17;;;24.80;86.20;;;;;;5092812;28;20024;-46
2022/06/26 10:23:06;;;;;;;1.13;0.85;;;;;;;;;;5092770;28;20028;-44
2022/06/26 10:25:33;;;;;;;3.58;1.10;;;24.90;55.10;;;;;;5092719;28;20035;-47
2022/06/26 10:28:00;;;;;;;3.97;1.08;;;24.70;86.00;;;;;;5092736;28;20107;-45
2022/06/26 10:30:27;;;;;;;2.90;1.20;;;25.00;85.90;;;;;;5092924;28;20043;-51
2022/06/26 10:33:06;;;;;;;1.50;1.00;;;25.20;86.20;;;;;;5092733;28;20037;-53
2022/06/26 10:35:45;;;;;;;2.67;1.30;;;24.90;78.20;;;;;;5092019;28;20028;-48
2022/06/26 10:38:27;;;;;;;1.67;1.02;;;25.10;85.90;;;;;;5092565;28;20030;-50
2022/06/26 10:44:04;;;;;;;1.77;1.50;;;25.10;86.00;;;;;;5092866;28;20031;-49
2022/06/26 10:46:48;;;;;;;3.67;1.48;;;25.00;58.70;;;;;;5092727;28;20070;-49
2022/06/26 10:49:14;;;;;;;8.27;1.23;;;;;;;;;;5092588;28;20118;-45
2022/06/26 10:51:43;;;;;;;2.60;1.55;;;25.20;75.10;;;;;;5092325;28;20169;-45
2022/06/26 10:54:29;;;;;;;3.60;1.80;;;25.30;85.60;;;;;;5092336;28;20110;-45
2022/06/26 10:57:07;;;;;;;3.00;1.65;;;25.00;61.70;;;;;;5092302;28;20024;-44
2022/06/26 10:59:32;;;;;;;4.53;2.10;;;25.20;84.80;;;;;;5092273;28;20028;-46
2022/06/26 11:01:58;;;;;;;4.72;1.70;;;24.90;85.20;;;;;;5092216;28;20032;-44
2022/06/26 11:04:24;;;;;;;5.65;2.20;;;;;;;;;;5092322;28;20035;-45
2022/06/26 11:06:50;;;;;;;3.80;1.60;;;25.00;54.00;;;;;;5092280;28;20028;-49
2022/06/26 11:09:16;;;;;;;2.75;2.05;;;25.00;84.70;;;;;;5092122;28;20119;-50
2022/06/26 11:11:42;;;;;;;4.30;2.00;;;;;;;;;;5092209;28;20173;-50
2022/06/26 11:14:08;;;;;;;4.10;1.90;;;25.30;84.40;;;;;;5092270;28;20085;-48
2022/06/26 11:16:34;;;;;;;4.45;1.80;;;;;;;;;;5092224;28;20020;-49
2022/06/26 11:19:03;;;;;;;2.05;1.60;;;25.30;84.90;;;;;;5092094;28;20395;-49
2022/06/26 11:21:29;;;;;;;2.40;1.85;;;25.10;84.50;;;;;;5092184;28;20020;-50
2022/06/26 11:23:55;;;;;;;2.28;1.73;;;25.30;85.00;;;;;;5092345;28;20020;-49
2022/06/26 11:26:22;;;;;;;2.85;1.95;;;25.20;84.80;;;;;;5092470;28;20463;-45
2022/06/26 11:29:00;;;;;;;4.15;1.58;;;25.30;85.10;;;;;;5092080;28;20060;-44
2022/06/26 11:31:31;;;;;;;3.20;1.92;;;25.20;85.00;;;;;;5091879;28;20036;-45
2022/06/26 11:34:12;;;;;;;3.75;2.00;;;24.60;84.50;;;;;;5092025;28;20028;-45
2022/06/26 11:36:51;;;;;;;3.38;2.00;;;25.10;53.50;;;;;;5091985;28;20028;-45
2022/06/26 11:39:18;;;;;;;1.88;1.60;;;24.70;84.70;;;;;;5092087;28;20032;-46
2022/06/26 11:41:45;;;;;;;2.45;1.90;;;25.60;53.80;;;;;;5092180;28;20028;-46
2022/06/26 11:44:11;;;;;;;4.38;1.77;;;25.10;84.80;;;;;;5091882;28;20020;-45
2022/06/26 11:46:37;;;;;;;2.30;1.95;;;24.70;84.30;;;;;;5092014;28;20035;-45
2022/06/26 11:49:02;;;;;;;3.00;2.10;;;25.30;84.50;;;;;;5095016;28;20099;-45
2022/06/26 11:51:31;;;;;;;2.60;1.90;;;25.20;84.20;;;;;;5095696;28;20036;-45
2022/06/26 11:53:58;;;;;;;2.45;1.73;;;;;;;;;;5095718;28;20028;-45
2022/06/26 11:56:26;;;;;;;4.47;2.17;;;24.90;53.40;;;;;;5095667;28;20024;-45
2022/06/26 11:58:53;;;;;;;1.80;1.65;;;24.80;57.10;;;;;;5095431;28;20452;-45
2022/06/26 12:01:20;;;;;;;2.15;1.50;;;;;;;;;;5095521;28;20059;-46
2022/06/26 12:03:49;;;;;;;1.63;1.42;;;25.30;57.60;;;;;;5095576;28;20043;-50
2022/06/26 12:06:35;;;;;;;2.60;1.73;;;25.20;84.30;;;;;;5095490;28;20045;-50
2022/06/26 12:09:23;;;;;;;2.80;1.65;;;25.10;52.90;;;;;;5095087;28;20036;-50
2022/06/26 12:11:51;;;;;;;3.38;1.65;;;25.10;52.90;;;;;;5078300;28;20406;-52
2022/06/26 12:14:19;;;;;;;6.00;1.77;;;25.10;83.60;;;;;;5095301;28;20027;-49
2022/06/26 12:16:45;;;;;;;5.68;1.83;;;25.40;83.80;;;;;;5095066;28;20087;-49
2022/06/26 12:19:11;;;;;;;2.65;1.60;;;25.10;83.50;;;;;;5095041;28;20624;-51
2022/06/26 12:21:37;;;;;;;2.70;1.90;;;24.90;83.30;;;;;;5095237;28;20110;-45
2022/06/26 12:24:10;;;;;;;3.40;1.50;;;25.30;83.70;;;;;;5094988;28;20016;-45
2022/06/26 12:26:38;;;;;;;1.67;1.42;;;25.30;64.60;;;;;;5095328;28;20016;-46
2022/06/26 12:29:10;;;;;;;2.45;1.58;;;25.20;56.30;;;;;;5095264;28;20417;-45
2022/06/26 12:31:36;;;;;;;3.38;1.60;;;27.90;54.40;;;;;;5095178;28;20028;-45
2022/06/26 12:34:05;;;;;;;3.88;1.70;;;25.30;82.90;;;;;;5094844;28;20024;-45
2022/06/26 12:36:31;;;;;;;2.55;1.50;;;25.30;82.80;;;;;;5095180;28;20433;-46
2022/06/26 12:38:57;;;;;;;3.67;1.55;;;25.00;82.80;;;;;;5094837;28;20105;-49
2022/06/26 12:41:23;;;;;;;2.33;1.45;;;25.20;82.70;;;;;;5094821;28;20451;-50
2022/06/26 12:43:54;;;;;;;1.92;1.60;;;25.20;82.80;;;;;;5076496;28;20020;-49
2022/06/26 12:46:20;;;;;;;3.08;1.70;;;25.30;52.30;;;;;;5094673;28;20032;-52
2022/06/26 12:48:47;;;;;;;2.22;1.63;;;25.50;82.80;;;;;;5094899;28;20024;-54
2022/06/26 12:51:13;;;;;;;2.42;1.70;;;25.00;82.20;;;;;;5094501;28;20044;-53
2022/06/26 12:53:40;;;;;;;1.92;1.27;;;25.10;81.80;;;;;;5094567;28;20077;-53
2022/06/26 12:56:06;;;;;;;2.38;1.67;;;25.30;64.70;;;;;;5094535;28;20028;-50
2022/06/26 12:58:32;;;;;;;2.70;1.40;;;25.30;81.70;;;;;;5094229;28;20027;-52
2022/06/26 13:00:58;;;;;;;4.40;1.80;;;25.20;76.80;;;;;;5094333;28;20475;-52
2022/06/26 13:03:24;;;;;;;4.15;1.50;;;25.30;80.90;;;;;;5094495;28;20024;-54
2022/06/26 13:05:50;;;;;;;4.65;1.50;;;25.40;50.30;;;;;;5094362;28;20020;-49
2022/06/26 13:08:16;;;;;;;2.58;1.80;;;;;;;;;;5094454;28;20055;-52
2022/06/26 13:10:44;;;;;;;5.05;1.67;;;25.00;80.80;;;;;;5093975;28;20055;-49
2022/06/26 13:13:10;;;;;;;3.25;1.60;;;;;;;;;;5094150;28;20081;-50
2022/06/26 13:15:35;;;;;;;3.42;1.73;;;25.20;80.40;;;;;;5094156;28;20032;-50
2022/06/26 13:18:01;;;;;;;2.25;1.55;;;25.40;80.80;;;;;;5094191;28;20020;-52
2022/06/26 13:20:27;;;;;;;2.90;1.55;;;25.30;80.40;;;;;;5093973;28;20080;-50